createdAt,value
2019-01-20T00:00:29.416Z,-0.46
2019-01-20T00:01:29.161Z,-0.54
2019-01-20T00:02:29.149Z,-0.55
2019-01-20T00:03:29.133Z,-0.65
2019-01-20T00:04:29.124Z,-0.65
2019-01-20T00:05:29.104Z,-0.55
2019-01-20T00:06:29.102Z,-0.57
2019-01-20T00:07:29.077Z,-0.54
2019-01-20T00:08:29.090Z,-0.58
2019-01-20T00:09:29.050Z,-0.49
2019-01-20T00:10:29.037Z,-0.58
2019-01-20T00:11:29.021Z,-0.52
2019-01-20T00:12:29.009Z,-0.67
2019-01-20T00:13:28.992Z,-0.65
2019-01-20T00:14:28.985Z,-0.70
2019-01-20T00:15:28.965Z,-0.80
2019-01-20T00:16:29.364Z,-0.82
2019-01-20T00:17:28.936Z,-0.85
2019-01-20T00:18:29.413Z,-0.83
2019-01-20T00:19:28.925Z,-0.83
2019-01-20T00:20:28.896Z,-0.86
2019-01-20T00:21:28.884Z,-0.78
2019-01-20T00:22:29.018Z,-0.70
2019-01-20T00:23:28.855Z,-0.76
2019-01-20T00:24:28.872Z,-0.82
2019-01-20T00:25:28.828Z,-0.94
2019-01-20T00:26:28.827Z,-0.85
2019-01-20T00:27:28.799Z,-0.99
2019-01-20T00:28:28.792Z,-1.05
2019-01-20T00:29:28.772Z,-0.97
2019-01-20T00:30:28.767Z,-0.89
2019-01-20T00:31:28.742Z,-0.85
2019-01-20T00:32:29.003Z,-0.86
2019-01-20T00:33:28.715Z,-0.92
2019-01-20T00:34:28.698Z,-0.86
2019-01-20T00:35:28.687Z,-0.91
2019-01-20T00:36:28.670Z,-0.82
2019-01-20T00:37:28.659Z,-0.73
2019-01-20T00:38:28.641Z,-0.72
2019-01-20T00:39:28.630Z,-0.79
2019-01-20T00:40:28.744Z,-0.80
2019-01-20T00:41:28.600Z,-0.78
2019-01-20T00:42:28.585Z,-0.79
2019-01-20T00:43:28.573Z,-0.70
2019-01-20T00:44:28.557Z,-0.75
2019-01-20T00:45:28.545Z,-0.76
2019-01-20T00:46:28.529Z,-0.79
2019-01-20T00:47:28.522Z,-0.94
2019-01-20T00:48:29.014Z,-0.94
2019-01-20T00:49:28.488Z,-0.95
2019-01-20T00:50:28.472Z,-0.95
2019-01-20T00:51:28.462Z,-1.04
2019-01-20T00:52:28.444Z,-1.02
2019-01-20T00:53:28.433Z,-1.05
2019-01-20T00:54:28.417Z,-1.02
2019-01-20T00:55:28.404Z,-1.22
2019-01-20T00:56:28.679Z,-1.10
2019-01-20T00:57:28.374Z,-1.05
2019-01-20T00:58:28.358Z,-1.04
2019-01-20T00:59:28.347Z,-1.02
2019-01-20T01:00:28.332Z,-1.02
2019-01-20T01:01:28.329Z,-0.99
2019-01-20T01:02:28.301Z,-1.01
2019-01-20T01:03:28.289Z,-0.99
2019-01-20T01:04:28.275Z,-0.89
2019-01-20T01:05:28.262Z,-0.85
2019-01-20T01:06:28.244Z,-0.83
2019-01-20T01:07:28.234Z,-0.86
2019-01-20T01:08:28.221Z,-0.89
2019-01-20T01:09:28.506Z,-0.83
2019-01-20T01:10:28.189Z,-0.85
2019-01-20T01:11:31.834Z,-0.89
2019-01-20T01:12:28.159Z,-0.92
2019-01-20T01:13:28.147Z,-0.85
2019-01-20T01:14:28.131Z,-0.92
2019-01-20T01:15:28.119Z,-0.83
2019-01-20T01:16:28.103Z,-1.02
2019-01-20T01:17:28.090Z,-0.98
2019-01-20T01:18:28.074Z,-0.97
2019-01-20T01:19:28.062Z,-0.91
2019-01-20T01:20:28.046Z,-0.94
2019-01-20T01:21:28.033Z,-0.92
2019-01-20T01:22:28.021Z,-0.86
2019-01-20T01:23:28.008Z,-0.85
2019-01-20T01:24:28.001Z,-0.92
2019-01-20T01:25:27.979Z,-0.92
2019-01-20T01:26:27.961Z,-0.86
2019-01-20T01:27:27.949Z,-0.86
2019-01-20T01:28:27.933Z,-0.89
2019-01-20T01:29:27.930Z,-0.82
2019-01-20T01:30:27.905Z,-0.89
2019-01-20T01:31:27.949Z,-0.83
2019-01-20T01:32:27.877Z,-0.86
2019-01-20T01:33:27.869Z,-0.89
2019-01-20T01:34:27.849Z,-0.86
2019-01-20T01:35:27.848Z,-0.80
2019-01-20T01:36:27.821Z,-0.83
2019-01-20T01:37:27.807Z,-0.85
2019-01-20T01:38:27.793Z,-0.80
2019-01-20T01:39:27.780Z,-0.85
2019-01-20T01:40:27.766Z,-0.82
2019-01-20T01:41:27.752Z,-0.98
2019-01-20T01:42:27.736Z,-1.02
2019-01-20T01:43:27.724Z,-1.02
2019-01-20T01:44:27.708Z,-1.07
2019-01-20T01:45:27.697Z,-0.98
2019-01-20T01:46:27.680Z,-1.04
2019-01-20T01:47:27.668Z,-1.02
2019-01-20T01:48:27.653Z,-1.09
2019-01-20T01:49:27.640Z,-1.07
2019-01-20T01:50:27.626Z,-1.04
2019-01-20T01:51:27.613Z,-0.92
2019-01-20T01:52:27.865Z,-0.97
2019-01-20T01:53:27.584Z,-0.98
2019-01-20T01:54:27.568Z,-1.01
2019-01-20T01:55:27.565Z,-1.10
2019-01-20T01:56:27.540Z,-1.09
2019-01-20T01:57:27.531Z,-1.02
2019-01-20T01:58:27.511Z,-0.98
2019-01-20T01:59:27.552Z,-1.07
2019-01-20T02:00:27.499Z,-1.15
2019-01-20T02:01:27.471Z,-1.15
2019-01-20T02:02:27.467Z,-1.16
2019-01-20T02:03:27.444Z,-1.15
2019-01-20T02:04:27.442Z,-1.15
2019-01-20T02:05:27.419Z,-1.22
2019-01-20T02:06:27.399Z,-1.10
2019-01-20T02:07:27.388Z,-1.09
2019-01-20T02:08:27.389Z,-1.04
2019-01-20T02:09:27.360Z,-1.13
2019-01-20T02:10:27.343Z,-1.10
2019-01-20T02:11:27.331Z,-1.15
2019-01-20T02:12:27.322Z,-1.16
2019-01-20T02:13:27.302Z,-1.16
2019-01-20T02:14:27.286Z,-1.25
2019-01-20T02:15:27.274Z,-1.17
2019-01-20T02:16:27.258Z,-1.17
2019-01-20T02:17:27.246Z,-1.12
2019-01-20T02:18:27.241Z,-1.20
2019-01-20T02:19:27.218Z,-1.27
2019-01-20T02:20:27.220Z,-1.28
2019-01-20T02:21:27.192Z,-1.27
2019-01-20T02:22:27.182Z,-1.31
2019-01-20T02:23:27.171Z,-1.23
2019-01-20T02:24:27.145Z,-1.16
2019-01-20T02:25:27.132Z,-1.19
2019-01-20T02:26:27.116Z,-1.05
2019-01-20T02:27:27.105Z,-0.99
2019-01-20T02:28:27.121Z,-1.07
2019-01-20T02:29:27.076Z,-1.05
2019-01-20T02:30:27.079Z,-1.07
2019-01-20T02:31:27.050Z,-1.09
2019-01-20T02:32:27.076Z,-1.01
2019-01-20T02:33:27.022Z,-1.07
2019-01-20T02:34:27.003Z,-1.01
2019-01-20T02:35:27.011Z,-1.12
2019-01-20T02:36:26.980Z,-1.13
2019-01-20T02:37:26.983Z,-1.12
2019-01-20T02:38:26.952Z,-1.16
2019-01-20T02:39:26.952Z,-1.16
2019-01-20T02:40:26.919Z,-1.20
2019-01-20T02:41:26.918Z,-1.27
2019-01-20T02:42:26.892Z,-1.28
2019-01-20T02:43:26.879Z,-1.17
2019-01-20T02:44:26.863Z,-1.31
2019-01-20T02:45:26.849Z,-1.31
2019-01-20T02:46:26.858Z,-1.15
2019-01-20T02:47:26.822Z,-1.16
2019-01-20T02:48:26.806Z,-1.16
2019-01-20T02:49:26.821Z,-1.20
2019-01-20T02:50:26.776Z,-1.15
2019-01-20T02:51:26.763Z,-1.19
2019-01-20T02:52:26.759Z,-1.15
2019-01-20T02:53:26.747Z,-1.13
2019-01-20T02:54:26.718Z,-1.09
2019-01-20T02:55:26.706Z,-1.16
2019-01-20T02:56:26.690Z,-1.30
2019-01-20T02:57:26.677Z,-1.31
2019-01-20T02:58:26.678Z,-1.34
2019-01-20T02:59:26.649Z,-1.33
2019-01-20T03:00:26.634Z,-1.28
2019-01-20T03:01:26.631Z,-1.27
2019-01-20T03:02:26.604Z,-1.30
2019-01-20T03:03:26.592Z,-1.25
2019-01-20T03:04:26.577Z,-1.34
2019-01-20T03:05:26.568Z,-1.31
2019-01-20T03:06:26.563Z,-1.37
2019-01-20T03:07:26.535Z,-1.40
2019-01-20T03:08:26.530Z,-1.45
2019-01-20T03:09:26.509Z,-1.38
2019-01-20T03:10:26.493Z,-1.43
2019-01-20T03:11:26.478Z,-1.45
2019-01-20T03:12:26.473Z,-1.49
2019-01-20T03:13:26.451Z,-1.58
2019-01-20T03:14:26.432Z,-1.51
2019-01-20T03:15:26.429Z,-1.52
2019-01-20T03:16:26.404Z,-1.59
2019-01-20T03:17:26.392Z,-1.51
2019-01-20T03:18:26.397Z,-1.56
2019-01-20T03:19:26.363Z,-1.58
2019-01-20T03:20:26.347Z,-1.54
2019-01-20T03:21:26.389Z,-1.55
2019-01-20T03:22:26.318Z,-1.59
2019-01-20T03:23:26.322Z,-1.61
2019-01-20T03:24:26.293Z,-1.49
2019-01-20T03:25:26.290Z,-1.55
2019-01-20T03:26:26.260Z,-1.54
2019-01-20T03:27:26.258Z,-1.61
2019-01-20T03:28:26.250Z,-1.59
2019-01-20T03:29:26.237Z,-1.61
2019-01-20T03:30:26.207Z,-1.62
2019-01-20T03:31:26.336Z,-1.56
2019-01-20T03:32:26.184Z,-1.72
2019-01-20T03:33:26.165Z,-1.70
2019-01-20T03:34:26.146Z,-1.73
2019-01-20T03:35:26.135Z,-1.73
2019-01-20T03:36:26.127Z,-1.70
2019-01-20T03:37:26.110Z,-1.74
2019-01-20T03:38:26.088Z,-1.74
2019-01-20T03:39:26.075Z,-1.72
2019-01-20T03:40:26.073Z,-1.69
2019-01-20T03:41:26.050Z,-1.72
2019-01-20T03:42:26.032Z,-1.67
2019-01-20T03:43:26.038Z,-1.74
2019-01-20T03:44:26.009Z,-1.73
2019-01-20T03:45:26.004Z,-1.69
2019-01-20T03:46:25.989Z,-1.73
2019-01-20T03:47:25.998Z,-1.72
2019-01-20T03:48:25.943Z,-1.67
2019-01-20T03:49:25.931Z,-1.64
2019-01-20T03:50:25.920Z,-1.59
2019-01-20T03:51:25.915Z,-1.64
2019-01-20T03:52:25.889Z,-1.59
2019-01-20T03:53:25.873Z,-1.67
2019-01-20T03:54:25.863Z,-1.72
2019-01-20T03:55:25.860Z,-1.73
2019-01-20T03:56:25.826Z,-1.74
2019-01-20T03:57:25.814Z,-1.85
2019-01-20T03:58:25.803Z,-1.97
2019-01-20T03:59:25.801Z,-1.91
2019-01-20T04:00:25.769Z,-1.97
2019-01-20T04:01:25.760Z,-2.00
2019-01-20T04:02:25.755Z,-2.09
2019-01-20T04:03:25.727Z,-1.92
2019-01-20T04:04:25.715Z,-2.03
2019-01-20T04:05:25.698Z,-2.02
2019-01-20T04:06:25.683Z,-1.94
2019-01-20T04:07:25.668Z,-2.03
2019-01-20T04:08:25.652Z,-1.98
2019-01-20T04:09:25.644Z,-2.06
2019-01-20T04:10:25.633Z,-2.05
2019-01-20T04:11:25.637Z,-1.98
2019-01-20T04:12:25.593Z,-1.97
2019-01-20T04:13:25.580Z,-2.00
2019-01-20T04:14:25.569Z,-1.97
2019-01-20T04:15:25.551Z,-1.92
2019-01-20T04:16:25.535Z,-1.97
2019-01-20T04:17:25.531Z,-1.92
2019-01-20T04:18:25.509Z,-1.92
2019-01-20T04:19:25.494Z,-1.87
2019-01-20T04:20:25.476Z,-1.91
2019-01-20T04:21:25.464Z,-1.91
2019-01-20T04:22:25.458Z,-1.87
2019-01-20T04:23:25.435Z,-1.92
2019-01-20T04:24:25.420Z,-1.95
2019-01-20T04:25:25.406Z,-1.94
2019-01-20T04:26:25.389Z,-1.88
2019-01-20T04:27:25.381Z,-1.84
2019-01-20T04:28:25.359Z,-1.91
2019-01-20T04:29:25.366Z,-1.87
2019-01-20T04:30:25.331Z,-1.77
2019-01-20T04:31:25.332Z,-1.76
2019-01-20T04:32:25.301Z,-1.85
2019-01-20T04:33:25.295Z,-1.79
2019-01-20T04:34:25.281Z,-1.88
2019-01-20T04:35:25.271Z,-1.82
2019-01-20T04:36:25.244Z,-1.85
2019-01-20T04:37:25.226Z,-1.80
2019-01-20T04:38:25.237Z,-1.85
2019-01-20T04:39:25.198Z,-1.85
2019-01-20T04:40:25.185Z,-1.91
2019-01-20T04:41:25.188Z,-1.92
2019-01-20T04:42:29.195Z,-1.97
2019-01-20T04:43:25.138Z,-1.92
2019-01-20T04:44:25.143Z,-1.94
2019-01-20T04:45:25.135Z,-1.97
2019-01-20T04:46:25.098Z,-1.91
2019-01-20T04:47:25.087Z,-1.98
2019-01-20T04:48:25.077Z,-1.90
2019-01-20T04:49:25.064Z,-1.94
2019-01-20T04:50:25.042Z,-1.90
2019-01-20T04:51:25.033Z,-1.88
2019-01-20T04:52:25.015Z,-1.90
2019-01-20T04:53:24.991Z,-1.82
2019-01-20T04:54:24.983Z,-1.85
2019-01-20T04:55:24.967Z,-1.82
2019-01-20T04:56:24.950Z,-1.90
2019-01-20T04:57:24.935Z,-1.90
2019-01-20T04:58:24.921Z,-1.95
2019-01-20T04:59:24.905Z,-1.92
2019-01-20T05:00:24.905Z,-1.88
2019-01-20T05:01:24.876Z,-1.90
2019-01-20T05:02:24.865Z,-1.88
2019-01-20T05:03:24.869Z,-1.94
2019-01-20T05:04:24.833Z,-2.02
2019-01-20T05:05:24.814Z,-2.00
2019-01-20T05:06:24.803Z,-1.95
2019-01-20T05:07:24.785Z,-2.08
2019-01-20T05:08:24.776Z,-2.08
2019-01-20T05:09:24.757Z,-2.18
2019-01-20T05:10:24.743Z,-2.16
2019-01-20T05:11:24.730Z,-2.13
2019-01-20T05:12:24.715Z,-2.18
2019-01-20T05:13:24.696Z,-2.18
2019-01-20T05:14:24.686Z,-2.18
2019-01-20T05:15:24.677Z,-2.06
2019-01-20T05:16:24.654Z,-2.10
2019-01-20T05:17:24.639Z,-2.05
2019-01-20T05:18:24.626Z,-2.05
2019-01-20T05:19:24.608Z,-2.02
2019-01-20T05:20:24.595Z,-2.06
2019-01-20T05:21:24.581Z,-2.08
2019-01-20T05:22:24.570Z,-2.20
2019-01-20T05:23:24.549Z,-2.13
2019-01-20T05:24:24.537Z,-2.15
2019-01-20T05:25:24.520Z,-2.13
2019-01-20T05:26:24.507Z,-2.06
2019-01-20T05:27:24.492Z,-2.16
2019-01-20T05:28:24.478Z,-2.16
2019-01-20T05:29:24.461Z,-2.12
2019-01-20T05:30:24.453Z,-2.16
2019-01-20T05:31:24.431Z,-2.15
2019-01-20T05:32:24.420Z,-2.12
2019-01-20T05:33:24.703Z,-2.18
2019-01-20T05:34:24.388Z,-2.09
2019-01-20T05:35:24.371Z,-2.26
2019-01-20T05:36:24.358Z,-2.26
2019-01-20T05:37:24.340Z,-2.32
2019-01-20T05:38:24.327Z,-2.48
2019-01-20T05:39:24.311Z,-2.55
2019-01-20T05:40:24.301Z,-2.55
2019-01-20T05:41:24.302Z,-2.55
2019-01-20T05:42:24.268Z,-2.50
2019-01-20T05:43:24.252Z,-2.53
2019-01-20T05:44:24.239Z,-2.48
2019-01-20T05:45:24.222Z,-2.55
2019-01-20T05:46:24.210Z,-2.50
2019-01-20T05:47:24.200Z,-2.55
2019-01-20T05:48:24.197Z,-2.52
2019-01-20T05:49:24.162Z,-2.60
2019-01-20T05:50:24.151Z,-2.50
2019-01-20T05:51:24.131Z,-2.55
2019-01-20T05:52:24.369Z,-2.49
2019-01-20T05:53:24.100Z,-2.53
2019-01-20T05:54:24.091Z,-2.48
2019-01-20T05:55:24.071Z,-2.43
2019-01-20T05:56:24.059Z,-2.52
2019-01-20T05:57:24.041Z,-2.58
2019-01-20T05:58:24.029Z,-2.60
2019-01-20T05:59:24.016Z,-2.55
2019-01-20T06:00:24.000Z,-2.55
2019-01-20T06:01:23.979Z,-2.61
2019-01-20T06:02:23.967Z,-2.56
2019-01-20T06:03:23.950Z,-2.56
2019-01-20T06:04:24.190Z,-2.55
2019-01-20T06:05:23.919Z,-2.50
2019-01-20T06:06:23.906Z,-2.49
2019-01-20T06:07:23.913Z,-2.49
2019-01-20T06:08:23.877Z,-2.52
2019-01-20T06:09:23.859Z,-2.55
2019-01-20T06:10:23.846Z,-2.66
2019-01-20T06:11:23.829Z,-2.63
2019-01-20T06:12:23.816Z,-2.66
2019-01-20T06:13:23.798Z,-2.55
2019-01-20T06:14:23.785Z,-2.56
2019-01-20T06:15:23.768Z,-2.63
2019-01-20T06:16:23.758Z,-2.48
2019-01-20T06:17:23.737Z,-2.58
2019-01-20T06:18:23.724Z,-2.55
2019-01-20T06:19:23.708Z,-2.53
2019-01-20T06:20:23.695Z,-2.50
2019-01-20T06:21:23.839Z,-2.56
2019-01-20T06:22:23.664Z,-2.53
2019-01-20T06:23:23.647Z,-2.64
2019-01-20T06:24:23.633Z,-2.60
2019-01-20T06:25:23.618Z,-2.67
2019-01-20T06:26:23.604Z,-2.74
2019-01-20T06:27:23.585Z,-2.82
2019-01-20T06:28:23.575Z,-2.92
2019-01-20T06:29:23.555Z,-2.84
2019-01-20T06:30:23.541Z,-2.89
2019-01-20T06:31:23.526Z,-2.79
2019-01-20T06:32:23.512Z,-2.79
2019-01-20T06:33:23.506Z,-2.85
2019-01-20T06:34:23.480Z,-2.82
2019-01-20T06:35:23.463Z,-2.85
2019-01-20T06:36:23.450Z,-2.81
2019-01-20T06:37:23.441Z,-2.74
2019-01-20T06:38:23.419Z,-2.85
2019-01-20T06:39:23.401Z,-2.86
2019-01-20T06:40:23.391Z,-2.78
2019-01-20T06:41:23.371Z,-2.81
2019-01-20T06:42:23.358Z,-2.73
2019-01-20T06:43:23.341Z,-2.82
2019-01-20T06:44:23.327Z,-2.85
2019-01-20T06:45:23.310Z,-2.74
2019-01-20T06:46:23.297Z,-2.70
2019-01-20T06:47:23.278Z,-2.68
2019-01-20T06:48:23.265Z,-2.70
2019-01-20T06:49:23.263Z,-2.70
2019-01-20T06:50:23.235Z,-2.71
2019-01-20T06:51:23.220Z,-2.68
2019-01-20T06:52:23.207Z,-2.67
2019-01-20T06:53:23.188Z,-2.71
2019-01-20T06:54:23.173Z,-2.68
2019-01-20T06:55:23.160Z,-2.73
2019-01-20T06:56:23.143Z,-2.68
2019-01-20T06:57:23.125Z,-2.68
2019-01-20T06:58:23.114Z,-2.70
2019-01-20T06:59:23.094Z,-2.68
2019-01-20T07:00:23.085Z,-2.74
2019-01-20T07:01:23.063Z,-2.78
2019-01-20T07:02:23.051Z,-2.86
2019-01-20T07:03:23.032Z,-2.71
2019-01-20T07:04:23.019Z,-2.64
2019-01-20T07:05:23.002Z,-2.67
2019-01-20T07:06:22.988Z,-2.63
2019-01-20T07:07:22.971Z,-2.63
2019-01-20T07:08:22.958Z,-2.68
2019-01-20T07:09:22.940Z,-2.52
2019-01-20T07:10:22.928Z,-2.53
2019-01-20T07:11:22.910Z,-2.50
2019-01-20T07:12:22.897Z,-2.56
2019-01-20T07:13:22.878Z,-2.50
2019-01-20T07:14:22.865Z,-2.58
2019-01-20T07:15:22.853Z,-2.63
2019-01-20T07:16:22.835Z,-2.66
2019-01-20T07:17:22.817Z,-2.64
2019-01-20T07:18:22.803Z,-2.60
2019-01-20T07:19:22.786Z,-2.46
2019-01-20T07:20:22.775Z,-2.52
2019-01-20T07:21:22.755Z,-2.55
2019-01-20T07:22:22.742Z,-2.58
2019-01-20T07:23:22.725Z,-2.61
2019-01-20T07:24:22.712Z,-2.61
2019-01-20T07:25:22.694Z,-2.64
2019-01-20T07:26:22.683Z,-2.55
2019-01-20T07:27:22.665Z,-2.55
2019-01-20T07:28:22.653Z,-2.45
2019-01-20T07:29:22.632Z,-2.43
2019-01-20T07:30:22.623Z,-2.48
2019-01-20T07:31:22.602Z,-2.46
2019-01-20T07:32:22.589Z,-2.49
2019-01-20T07:33:22.571Z,-2.50
2019-01-20T07:34:22.559Z,-2.49
2019-01-20T07:35:22.541Z,-2.53
2019-01-20T07:36:22.529Z,-2.50
2019-01-20T07:37:22.510Z,-2.50
2019-01-20T07:38:22.498Z,-2.53
2019-01-20T07:39:22.479Z,-2.45
2019-01-20T07:40:22.467Z,-2.49
2019-01-20T07:41:22.449Z,-2.46
2019-01-20T07:42:22.438Z,-2.48
2019-01-20T07:43:22.419Z,-2.60
2019-01-20T07:44:22.406Z,-2.53
2019-01-20T07:45:22.388Z,-2.64
2019-01-20T07:46:22.375Z,-2.50
2019-01-20T07:47:22.357Z,-2.55
2019-01-20T07:48:22.346Z,-2.63
2019-01-20T07:49:22.329Z,-2.64
2019-01-20T07:50:22.316Z,-2.66
2019-01-20T07:51:22.298Z,-2.63
2019-01-20T07:52:22.311Z,-2.55
2019-01-20T07:53:22.269Z,-2.64
2019-01-20T07:54:22.253Z,-2.53
2019-01-20T07:55:22.236Z,-2.48
2019-01-20T07:56:22.225Z,-2.49
2019-01-20T07:57:22.205Z,-2.43
2019-01-20T07:58:22.192Z,-2.40
2019-01-20T07:59:22.179Z,-2.35
2019-01-20T08:00:22.162Z,-2.32
2019-01-20T08:01:22.144Z,-2.40
2019-01-20T08:02:22.131Z,-2.43
2019-01-20T08:03:22.114Z,-2.37
2019-01-20T08:04:22.101Z,-2.39
2019-01-20T08:05:22.083Z,-2.32
2019-01-20T08:06:22.070Z,-2.39
2019-01-20T08:07:22.053Z,-2.34
2019-01-20T08:08:22.041Z,-2.27
2019-01-20T08:09:22.023Z,-2.34
2019-01-20T08:10:22.030Z,-2.34
2019-01-20T08:11:21.992Z,-2.24
2019-01-20T08:12:23.627Z,-2.30
2019-01-20T08:13:24.438Z,-2.21
2019-01-20T08:14:21.949Z,-2.26
2019-01-20T08:15:21.932Z,-2.10
2019-01-20T08:16:21.920Z,-2.20
2019-01-20T08:17:21.901Z,-2.20
2019-01-20T08:18:21.889Z,-2.12
2019-01-20T08:19:21.873Z,-2.09
2019-01-20T08:20:21.860Z,-2.06
2019-01-20T08:21:21.841Z,-2.10
2019-01-20T08:22:21.829Z,-2.09
2019-01-20T08:23:21.812Z,-2.23
2019-01-20T08:24:21.800Z,-2.09
2019-01-20T08:25:21.782Z,-2.03
2019-01-20T08:26:21.769Z,-2.05
2019-01-20T08:27:21.753Z,-2.03
2019-01-20T08:28:21.740Z,-2.06
2019-01-20T08:29:21.723Z,-2.06
2019-01-20T08:30:21.710Z,-2.06
2019-01-20T08:31:21.692Z,-2.06
2019-01-20T08:32:21.680Z,-2.02
2019-01-20T08:33:21.663Z,-1.98
2019-01-20T08:34:21.653Z,-1.90
2019-01-20T08:35:21.632Z,-1.82
2019-01-20T08:36:21.620Z,-1.74
2019-01-20T08:37:28.653Z,-1.70
2019-01-20T08:38:21.589Z,-1.67
2019-01-20T08:39:21.573Z,-1.58
2019-01-20T08:40:21.560Z,-1.46
2019-01-20T08:41:21.542Z,-1.54
2019-01-20T08:42:21.529Z,-1.62
2019-01-20T08:43:21.515Z,-1.48
2019-01-20T08:44:21.500Z,-1.48
2019-01-20T08:45:21.482Z,-1.45
2019-01-20T08:46:21.472Z,-1.38
2019-01-20T08:47:21.453Z,-1.40
2019-01-20T08:48:21.440Z,-1.31
2019-01-20T08:49:21.423Z,-1.38
2019-01-20T08:50:21.410Z,-1.37
2019-01-20T08:51:21.401Z,-1.31
2019-01-20T08:52:21.379Z,-1.28
2019-01-20T08:53:21.366Z,-1.15
2019-01-20T08:54:21.347Z,-1.15
2019-01-20T08:55:21.348Z,-1.15
2019-01-20T08:56:21.319Z,-1.23
2019-01-20T08:57:21.305Z,-1.15
2019-01-20T08:58:21.289Z,-1.13
2019-01-20T08:59:21.277Z,-1.05
2019-01-20T09:00:21.260Z,-1.07
2019-01-20T09:01:21.246Z,-1.15
2019-01-20T09:02:21.232Z,-1.02
2019-01-20T09:03:21.217Z,-1.02
2019-01-20T09:04:21.501Z,-0.99
2019-01-20T09:05:21.188Z,-0.97
2019-01-20T09:06:21.173Z,-0.95
2019-01-20T09:07:21.159Z,-0.85
2019-01-20T09:08:21.145Z,-0.92
2019-01-20T09:09:21.129Z,-0.86
2019-01-20T09:10:21.116Z,-0.79
2019-01-20T09:11:21.101Z,-0.72
2019-01-20T09:12:21.085Z,-0.58
2019-01-20T09:13:21.072Z,-0.67
2019-01-20T09:14:21.054Z,-0.52
2019-01-20T09:15:21.045Z,-0.60
2019-01-20T09:16:21.026Z,-0.47
2019-01-20T09:17:21.013Z,-0.47
2019-01-20T09:18:20.999Z,-0.46
2019-01-20T09:19:20.985Z,-0.39
2019-01-20T09:20:20.969Z,-0.39
2019-01-20T09:21:20.959Z,-0.28
2019-01-20T09:22:20.940Z,-0.18
2019-01-20T09:23:20.928Z,-0.26
2019-01-20T09:24:20.912Z,-0.11
2019-01-20T09:25:20.900Z,-0.10
2019-01-20T09:26:20.884Z,-0.01
2019-01-20T09:27:20.872Z,-0.07
2019-01-20T09:28:20.857Z,-0.07
2019-01-20T09:29:20.843Z,-0.01
2019-01-20T09:30:20.827Z,-0.08
2019-01-20T09:31:20.816Z,-0.08
2019-01-20T09:32:20.800Z,-0.10
2019-01-20T09:33:24.658Z,-0.05
2019-01-20T09:34:20.771Z,-0.10
2019-01-20T09:35:20.760Z,-0.10
2019-01-20T09:36:20.745Z,-0.04
2019-01-20T09:37:20.731Z,-0.04
2019-01-20T09:38:20.716Z,0.10
2019-01-20T09:39:20.704Z,0.11
2019-01-20T09:40:20.688Z,0.13
2019-01-20T09:41:20.676Z,0.20
2019-01-20T09:42:20.661Z,0.46
2019-01-20T09:43:20.650Z,0.47
2019-01-20T09:44:20.635Z,0.47
2019-01-20T09:45:20.621Z,0.42
2019-01-20T09:46:20.606Z,0.51
2019-01-20T09:47:20.596Z,0.57
2019-01-20T09:48:20.580Z,0.51
2019-01-20T09:49:20.567Z,0.47
2019-01-20T09:50:20.551Z,0.49
2019-01-20T09:51:20.540Z,0.38
2019-01-20T09:52:20.525Z,0.20
2019-01-20T09:53:20.514Z,0.18
2019-01-20T09:54:20.498Z,0.35
2019-01-20T09:55:20.487Z,0.29
2019-01-20T09:56:20.472Z,0.35
2019-01-20T09:57:20.474Z,0.32
2019-01-20T09:58:20.446Z,0.31
2019-01-20T09:59:20.435Z,0.33
2019-01-20T10:00:20.420Z,0.32
2019-01-20T10:01:20.418Z,0.32
2019-01-20T10:02:20.396Z,0.46
2019-01-20T10:03:20.384Z,0.42
2019-01-20T10:04:20.371Z,0.39
2019-01-20T10:05:20.355Z,0.39
2019-01-20T10:06:20.341Z,0.35
2019-01-20T10:07:20.330Z,0.44
2019-01-20T10:08:20.316Z,0.44
2019-01-20T10:09:20.304Z,0.53
2019-01-20T10:10:20.589Z,0.57
2019-01-20T10:11:20.279Z,0.76
2019-01-20T10:12:20.265Z,0.80
2019-01-20T10:13:20.251Z,0.80
2019-01-20T10:14:20.237Z,0.78
2019-01-20T10:15:20.225Z,0.73
2019-01-20T10:16:20.210Z,0.73
2019-01-20T10:17:20.199Z,0.83
2019-01-20T10:18:20.184Z,0.72
2019-01-20T10:19:20.173Z,0.83
2019-01-20T10:20:20.160Z,0.78
2019-01-20T10:21:20.147Z,0.87
2019-01-20T10:22:20.132Z,0.80
2019-01-20T10:23:20.122Z,0.93
2019-01-20T10:24:20.106Z,0.79
2019-01-20T10:25:20.097Z,0.84
2019-01-20T10:26:20.079Z,0.93
2019-01-20T10:27:20.070Z,0.96
2019-01-20T10:28:20.054Z,0.94
2019-01-20T10:29:20.043Z,0.98
2019-01-20T10:30:20.028Z,1.11
2019-01-20T10:31:20.017Z,1.16
2019-01-20T10:32:20.002Z,1.15
2019-01-20T10:33:19.991Z,1.06
2019-01-20T10:34:19.978Z,1.16
2019-01-20T10:35:19.965Z,1.14
2019-01-20T10:36:19.951Z,1.16
2019-01-20T10:37:19.939Z,1.18
2019-01-20T10:38:19.924Z,1.30
2019-01-20T10:39:19.914Z,1.33
2019-01-20T10:40:19.899Z,1.34
2019-01-20T10:41:19.888Z,1.37
2019-01-20T10:42:19.873Z,1.48
2019-01-20T10:43:19.863Z,1.45
2019-01-20T10:44:19.848Z,1.48
2019-01-20T10:45:19.837Z,1.36
2019-01-20T10:46:19.822Z,1.33
2019-01-20T10:47:19.829Z,1.36
2019-01-20T10:48:19.798Z,1.48
2019-01-20T10:49:19.787Z,1.45
2019-01-20T10:50:19.772Z,1.55
2019-01-20T10:51:20.012Z,1.58
2019-01-20T10:52:19.749Z,1.72
2019-01-20T10:53:19.736Z,1.66
2019-01-20T10:54:19.724Z,1.62
2019-01-20T10:55:19.715Z,1.63
2019-01-20T10:56:19.697Z,1.69
2019-01-20T10:57:19.686Z,1.70
2019-01-20T10:58:19.672Z,1.68
2019-01-20T10:59:19.662Z,1.69
2019-01-20T11:00:19.647Z,1.90
2019-01-20T11:01:19.637Z,1.87
2019-01-20T11:02:19.622Z,1.90
2019-01-20T11:03:19.613Z,1.87
2019-01-20T11:04:19.607Z,1.79
2019-01-20T11:05:24.959Z,1.83
2019-01-20T11:06:19.574Z,1.90
2019-01-20T11:07:19.566Z,2.05
2019-01-20T11:08:19.552Z,2.06
2019-01-20T11:09:19.556Z,2.07
2019-01-20T11:10:19.524Z,2.05
2019-01-20T11:11:19.528Z,2.12
2019-01-20T11:12:19.504Z,2.21
2019-01-20T11:13:19.498Z,2.24
2019-01-20T11:14:19.477Z,2.14
2019-01-20T11:15:19.467Z,2.25
2019-01-20T11:16:19.453Z,2.35
2019-01-20T11:17:19.474Z,2.36
2019-01-20T11:18:19.429Z,2.49
2019-01-20T11:19:19.421Z,2.63
2019-01-20T11:20:19.407Z,2.60
2019-01-20T11:21:19.648Z,2.57
2019-01-20T11:22:19.385Z,2.64
2019-01-20T11:23:19.376Z,2.59
2019-01-20T11:24:19.403Z,2.56
2019-01-20T11:25:19.354Z,2.66
2019-01-20T11:26:19.342Z,2.52
2019-01-20T11:27:19.333Z,2.67
2019-01-20T11:28:19.321Z,2.61
2019-01-20T11:29:19.313Z,2.66
2019-01-20T11:30:19.299Z,2.61
2019-01-20T11:31:19.295Z,2.74
2019-01-20T11:32:19.286Z,2.72
2019-01-20T11:33:19.278Z,2.90
2019-01-20T11:34:19.259Z,3.11
2019-01-20T11:35:19.250Z,3.18
2019-01-20T11:36:19.238Z,3.05
2019-01-20T11:37:19.232Z,3.00
2019-01-20T11:38:19.218Z,2.74
2019-01-20T11:39:19.209Z,2.78
2019-01-20T11:40:19.197Z,2.85
2019-01-20T11:41:19.188Z,3.06
2019-01-20T11:42:19.176Z,2.92
2019-01-20T11:43:19.189Z,2.93
2019-01-20T11:44:19.158Z,2.92
2019-01-20T11:45:19.150Z,3.02
2019-01-20T11:46:19.138Z,3.28
2019-01-20T11:47:19.131Z,3.13
2019-01-20T11:48:19.121Z,3.11
2019-01-20T11:49:19.113Z,3.05
2019-01-20T11:50:19.102Z,3.05
2019-01-20T11:51:19.345Z,3.20
2019-01-20T11:52:19.084Z,3.15
2019-01-20T11:53:19.076Z,3.26
2019-01-20T11:54:19.064Z,3.29
2019-01-20T11:55:19.061Z,3.55
2019-01-20T11:56:19.048Z,3.65
2019-01-20T11:57:19.039Z,3.69
2019-01-20T11:58:19.028Z,3.61
2019-01-20T11:59:19.023Z,3.65
2019-01-20T12:00:19.012Z,3.60
2019-01-20T12:01:19.002Z,3.51
2019-01-20T12:02:22.487Z,3.65
2019-01-20T12:03:18.984Z,3.69
2019-01-20T12:04:18.972Z,3.52
2019-01-20T12:05:18.964Z,3.36
2019-01-20T12:06:18.955Z,3.15
2019-01-20T12:07:18.946Z,2.92
2019-01-20T12:08:18.937Z,3.00
2019-01-20T12:09:18.936Z,2.93
2019-01-20T12:10:18.916Z,3.00
2019-01-20T12:11:18.908Z,3.17
2019-01-20T12:12:18.897Z,3.15
2019-01-20T12:13:18.888Z,3.06
2019-01-20T12:14:24.003Z,3.06
2019-01-20T12:15:18.870Z,3.02
2019-01-20T12:16:18.858Z,3.00
2019-01-20T12:17:18.849Z,3.08
2019-01-20T12:18:18.838Z,3.43
2019-01-20T12:19:18.830Z,3.69
2019-01-20T12:20:18.817Z,3.96
2019-01-20T12:21:18.808Z,3.86
2019-01-20T12:22:19.047Z,3.80
2019-01-20T12:23:18.799Z,3.83
2019-01-20T12:24:19.534Z,3.62
2019-01-20T12:25:18.768Z,3.61
2019-01-20T12:26:18.756Z,3.61
2019-01-20T12:27:18.753Z,3.88
2019-01-20T12:28:18.739Z,3.76
2019-01-20T12:29:18.729Z,3.76
2019-01-20T12:30:18.720Z,3.68
2019-01-20T12:31:18.710Z,3.69
2019-01-20T12:32:18.699Z,3.58
2019-01-20T12:33:18.735Z,3.50
2019-01-20T12:34:18.679Z,3.87
2019-01-20T12:35:18.681Z,3.88
2019-01-20T12:36:18.662Z,3.69
2019-01-20T12:37:18.661Z,3.58
2019-01-20T12:38:18.660Z,3.73
2019-01-20T12:39:18.636Z,3.69
2019-01-20T12:40:18.681Z,3.94
2019-01-20T12:41:18.616Z,3.96
2019-01-20T12:42:18.604Z,3.91
2019-01-20T12:43:18.604Z,3.72
2019-01-20T12:44:18.602Z,3.80
2019-01-20T12:45:18.579Z,4.05
2019-01-20T12:46:18.570Z,4.14
2019-01-20T12:47:18.562Z,4.36
2019-01-20T12:48:18.552Z,4.50
2019-01-20T12:49:18.545Z,4.30
2019-01-20T12:50:18.534Z,4.55
2019-01-20T12:51:18.529Z,4.65
2019-01-20T12:52:18.770Z,4.84
2019-01-20T12:53:18.512Z,4.84
2019-01-20T12:54:18.503Z,4.58
2019-01-20T12:55:18.497Z,4.44
2019-01-20T12:56:18.489Z,4.44
2019-01-20T12:57:18.483Z,4.75
2019-01-20T12:58:18.476Z,4.97
2019-01-20T12:59:18.470Z,5.02